Belleair Shores, Florida
Current Conditions -  °F | °C
As of 1:35 AM on Monday 24 Nov 2014 (Local Time) from KCLW Reporting Station
Overcast Overcast  
Wind Chill: 73°   Ceiling: 500
Heat Index: 73°   Visibility: 7mi
Dew Point: 72°   Wind: 8mph
Humidity: 94%   Direction: 170°S
Pressure: 29.9"   Gusts: NA
Location:  27.9235°N, 82.8418°W
Report Text: KCLW 240635Z AUTO 17007KT 7SM OVC005 23/22 A2990 RMK AO2
Loading
Personal Weather Stations






























Interactive Weather Map New forecast layout! Learn more

10-Day Weather Forecast

Advertisements
Track Severe Weather on mobile